Peary Spirit — C6YM3 — position and weather

sailwx.info

Track history (hours):
 
Tides and Currents Weather Stations Pressure Air Temp Water Temp Dewpoint Dewpoint Depression Visibility Wind Speed Wind Dir Waves Ship Positions

Peary Spirit

Last reported at 2016-Sep-26 11:21 UTC. Time now 2016-Sep-29 08:29 UTC.
Position N 58°21' E 004°35'.

Length 249 m; draft 9.5 m.

Type: Tanker. MMSI: 311027600.

Date/timePositionNaut miles runAvg speedWind from/ knotsBaromVisibWave heightAir tempDewpointWater temp
2016-Sep-26 11:21N 58°21' E 004°35'19914.4
2016-Sep-25 21:34N 55°14' E 006°42'6015.1
2016-Sep-25 17:33N 54°19' E 007°23'1514.6
2016-Sep-25 16:33N 54°06' E 007°35'1312.6
2016-Sep-25 15:33N 53°55' E 007°45'1313.4
2016-Sep-25 14:34N 53°46' E 008°03'14 4.1
2016-Sep-25 11:12N 53°33' E 008°10'0 0.0
2016-Sep-25 10:27N 53°33' E 008°10'0 0.0
2016-Sep-25 09:30N 53°33' E 008°10'0 0.0
2016-Sep-25 07:33N 53°33' E 008°10'0 0.0
2016-Sep-25 04:33N 53°33' E 008°10'0 0.0
2016-Sep-25 00:33N 53°33' E 008°10'0 0.0
2016-Sep-24 22:30N 53°33' E 008°10'0 0.0
2016-Sep-24 19:27N 53°33' E 008°10'0 0.0
2016-Sep-24 14:27N 53°33' E 008°10'0 0.0
2016-Sep-24 12:09N 53°33' E 008°10'0 0.0
2016-Sep-24 10:25N 53°33' E 008°10'0 0.3
2016-Sep-24 09:33N 53°34' E 008°10'58 9.6
2016-Sep-24 03:33N 54°23' E 007°18'1313.4
2016-Sep-24 02:33N 54°35' E 007°08'1313.5
2016-Sep-24 01:33N 54°48' E 006°60'1413.6
2016-Sep-24 00:33N 54°60' E 006°50'  
2016-Sep-20 06:10N 55°46' W 006°55'7418.9
2016-Sep-20 02:14N 54°52' W 005°26'4316.0
2016-Sep-19 23:34N 54°10' W 005°09'7117.7
2016-Sep-19 19:33N 53°00' W 005°28'  
Track history (hours):
 
Tides and Currents Weather Stations Pressure Air Temp Water Temp Dewpoint Dewpoint Depression Visibility Wind Speed Wind Dir Waves Ship Positions

Peary Spirit

Last reported at 2016-Sep-26 11:21 UTC. Time now 2016-Sep-29 08:29 UTC.
Position N 58°21' E 004°35'.

Length 249 m; draft 9.5 m.

Type: Tanker. MMSI: 311027600.

Date/timePositionNaut miles runAvg speedWind from/ knotsBaromVisibWave heightAir tempDewpointWater temp
2016-Sep-26 11:21N 58°21' E 004°35'19914.4
2016-Sep-25 21:34N 55°14' E 006°42'6015.1
2016-Sep-25 17:33N 54°19' E 007°23'1514.6
2016-Sep-25 16:33N 54°06' E 007°35'1312.6
2016-Sep-25 15:33N 53°55' E 007°45'1313.4
2016-Sep-25 14:34N 53°46' E 008°03'14 4.1
2016-Sep-25 11:12N 53°33' E 008°10'0 0.0
2016-Sep-25 10:27N 53°33' E 008°10'0 0.0
2016-Sep-25 09:30N 53°33' E 008°10'0 0.0
2016-Sep-25 07:33N 53°33' E 008°10'0 0.0
2016-Sep-25 04:33N 53°33' E 008°10'0 0.0
2016-Sep-25 00:33N 53°33' E 008°10'0 0.0
2016-Sep-24 22:30N 53°33' E 008°10'0 0.0
2016-Sep-24 19:27N 53°33' E 008°10'0 0.0
2016-Sep-24 14:27N 53°33' E 008°10'0 0.0
2016-Sep-24 12:09N 53°33' E 008°10'0 0.0
2016-Sep-24 10:25N 53°33' E 008°10'0 0.3
2016-Sep-24 09:33N 53°34' E 008°10'58 9.6
2016-Sep-24 03:33N 54°23' E 007°18'1313.4
2016-Sep-24 02:33N 54°35' E 007°08'1313.5
2016-Sep-24 01:33N 54°48' E 006°60'1413.6
2016-Sep-24 00:33N 54°60' E 006°50'  
2016-Sep-20 06:10N 55°46' W 006°55'7418.9
2016-Sep-20 02:14N 54°52' W 005°26'4316.0
2016-Sep-19 23:34N 54°10' W 005°09'7117.7
2016-Sep-19 19:33N 53°00' W 005°28'  

Dump ship's entire track history